sensor_id;sensor_type;location;lat;lon;timestamp;noise_LAeq;noise_LA_min;noise_LA_max;noise_LA01;noise_LA95
45478;Laerm;31227;47.986;11.868;2022-12-10T00:00:38;37.73;33.44;41.46;;
45478;Laerm;31227;47.986;11.868;2022-12-10T00:03:03;37.91;33.44;44.80;;
45478;Laerm;31227;47.986;11.868;2022-12-10T00:05:29;37.66;33.44;42.16;;
45478;Laerm;31227;47.986;11.868;2022-12-10T00:07:54;37.70;32.35;42.71;;
45478;Laerm;31227;47.986;11.868;2022-12-10T00:10:19;37.97;33.44;42.03;;
45478;Laerm;31227;47.986;11.868;2022-12-10T00:12:44;38.06;33.44;43.68;;
45478;Laerm;31227;47.986;11.868;2022-12-10T00:15:09;37.57;33.44;40.33;;
45478;Laerm;31227;47.986;11.868;2022-12-10T00:17:35;37.70;32.35;42.16;;
45478;Laerm;31227;47.986;11.868;2022-12-10T00:20:00;38.09;32.93;44.94;;
45478;Laerm;31227;47.986;11.868;2022-12-10T00:22:25;37.79;32.35;44.90;;
45478;Laerm;31227;47.986;11.868;2022-12-10T00:24:50;37.69;32.35;41.38;;
45478;Laerm;31227;47.986;11.868;2022-12-10T00:27:16;37.55;32.93;40.33;;
45478;Laerm;31227;47.986;11.868;2022-12-10T00:29:41;38.02;33.90;43.29;;
45478;Laerm;31227;47.986;11.868;2022-12-10T00:32:06;37.81;33.90;43.09;;
45478;Laerm;31227;47.986;11.868;2022-12-10T00:34:32;37.91;33.44;42.35;;
45478;Laerm;31227;47.986;11.868;2022-12-10T00:36:57;37.64;32.93;41.61;;
45478;Laerm;31227;47.986;11.868;2022-12-10T00:39:22;37.80;32.93;41.61;;
45478;Laerm;31227;47.986;11.868;2022-12-10T00:41:47;37.80;33.90;42.47;;
45478;Laerm;31227;47.986;11.868;2022-12-10T00:44:13;37.79;32.93;42.71;;
45478;Laerm;31227;47.986;11.868;2022-12-10T00:46:39;37.59;32.35;40.33;;
45478;Laerm;31227;47.986;11.868;2022-12-10T00:49:04;37.57;33.44;40.33;;
45478;Laerm;31227;47.986;11.868;2022-12-10T00:51:30;37.57;32.93;40.33;;
45478;Laerm;31227;47.986;11.868;2022-12-10T00:53:56;38.19;31.68;43.14;;
45478;Laerm;31227;47.986;11.868;2022-12-10T00:56:22;37.89;33.44;42.58;;
45478;Laerm;31227;47.986;11.868;2022-12-10T00:58:48;37.68;32.93;42.47;;
45478;Laerm;31227;47.986;11.868;2022-12-10T01:01:15;37.57;33.90;40.23;;
45478;Laerm;31227;47.986;11.868;2022-12-10T01:03:41;37.79;33.44;42.41;;
45478;Laerm;31227;47.986;11.868;2022-12-10T01:06:07;37.98;33.44;43.14;;
45478;Laerm;31227;47.986;11.868;2022-12-10T01:08:33;38.23;32.35;43.86;;
45478;Laerm;31227;47.986;11.868;2022-12-10T01:10:58;37.59;32.93;40.43;;
45478;Laerm;31227;47.986;11.868;2022-12-10T01:13:23;37.59;32.35;40.23;;
45478;Laerm;31227;47.986;11.868;2022-12-10T01:15:49;37.71;32.93;41.61;;
45478;Laerm;31227;47.986;11.868;2022-12-10T01:18:14;38.01;33.44;42.71;;
45478;Laerm;31227;47.986;11.868;2022-12-10T01:20:39;37.99;32.93;45.04;;
45478;Laerm;31227;47.986;11.868;2022-12-10T01:23:04;37.74;32.93;41.96;;
45478;Laerm;31227;47.986;11.868;2022-12-10T01:25:30;37.81;32.93;43.44;;
45478;Laerm;31227;47.986;11.868;2022-12-10T01:27:55;37.69;33.44;41.22;;
45478;Laerm;31227;47.986;11.868;2022-12-10T01:30:20;37.60;32.35;40.43;;
45478;Laerm;31227;47.986;11.868;2022-12-10T01:32:45;37.94;33.90;44.08;;
45478;Laerm;31227;47.986;11.868;2022-12-10T01:35:10;38.02;33.44;44.47;;
45478;Laerm;31227;47.986;11.868;2022-12-10T01:37:35;37.60;32.93;40.62;;
45478;Laerm;31227;47.986;11.868;2022-12-10T01:40:01;37.56;33.44;40.27;;
45478;Laerm;31227;47.986;11.868;2022-12-10T01:42:26;38.05;33.44;42.88;;
45478;Laerm;31227;47.986;11.868;2022-12-10T01:44:58;37.68;32.35;41.68;;
45478;Laerm;31227;47.986;11.868;2022-12-10T01:47:24;37.60;32.93;40.33;;
45478;Laerm;31227;47.986;11.868;2022-12-10T01:49:49;37.68;32.93;42.03;;
45478;Laerm;31227;47.986;11.868;2022-12-10T01:52:14;37.99;32.93;43.34;;
45478;Laerm;31227;47.986;11.868;2022-12-10T01:54:41;38.07;32.93;43.34;;
45478;Laerm;31227;47.986;11.868;2022-12-10T01:57:08;37.60;33.44;40.33;;
45478;Laerm;31227;47.986;11.868;2022-12-10T01:59:35;37.59;33.44;40.43;;
45478;Laerm;31227;47.986;11.868;2022-12-10T02:04:45;37.58;32.93;40.13;;
45478;Laerm;31227;47.986;11.868;2022-12-10T02:07:13;37.71;33.44;42.47;;
45478;Laerm;31227;47.986;11.868;2022-12-10T02:09:43;37.82;32.93;41.82;;
45478;Laerm;31227;47.986;11.868;2022-12-10T02:12:14;37.88;33.44;43.29;;
45478;Laerm;31227;47.986;11.868;2022-12-10T02:14:49;38.34;33.44;45.23;;
45478;Laerm;31227;47.986;11.868;2022-12-10T02:17:18;37.71;31.68;42.65;;
45478;Laerm;31227;47.986;11.868;2022-12-10T02:19:56;37.99;32.93;47.68;;
45478;Laerm;31227;47.986;11.868;2022-12-10T02:22:23;37.76;33.44;43.34;;
45478;Laerm;31227;47.986;11.868;2022-12-10T02:24:48;37.55;33.44;40.23;;
45478;Laerm;31227;47.986;11.868;2022-12-10T02:29:41;37.59;32.93;40.13;;
45478;Laerm;31227;47.986;11.868;2022-12-10T02:32:10;37.89;31.68;43.94;;
45478;Laerm;31227;47.986;11.868;2022-12-10T02:34:39;37.59;32.35;40.13;;
45478;Laerm;31227;47.986;11.868;2022-12-10T02:37:06;38.37;31.68;46.38;;
45478;Laerm;31227;47.986;11.868;2022-12-10T02:39:36;38.04;32.35;45.86;;
45478;Laerm;31227;47.986;11.868;2022-12-10T02:42:03;37.75;32.93;43.86;;
45478;Laerm;31227;47.986;11.868;2022-12-10T02:44:30;37.59;32.93;40.23;;
45478;Laerm;31227;47.986;11.868;2022-12-10T02:46:56;37.96;32.35;43.19;;
45478;Laerm;31227;47.986;11.868;2022-12-10T02:49:22;37.61;33.44;40.62;;
45478;Laerm;31227;47.986;11.868;2022-12-10T02:51:48;37.59;32.93;40.13;;
45478;Laerm;31227;47.986;11.868;2022-12-10T02:56:58;37.59;33.44;40.71;;
45478;Laerm;31227;47.986;11.868;2022-12-10T02:59:29;37.72;32.93;43.72;;
45478;Laerm;31227;47.986;11.868;2022-12-10T03:02:16;37.85;33.44;43.81;;
45478;Laerm;31227;47.986;11.868;2022-12-10T03:04:48;38.27;32.93;44.76;;
45478;Laerm;31227;47.986;11.868;2022-12-10T03:07:34;37.60;32.93;40.71;;
45478;Laerm;31227;47.986;11.868;2022-12-10T03:10:06;37.69;33.44;41.89;;
45478;Laerm;31227;47.986;11.868;2022-12-10T03:12:39;37.75;32.93;43.14;;
45478;Laerm;31227;47.986;11.868;2022-12-10T03:15:07;37.95;33.90;45.27;;
45478;Laerm;31227;47.986;11.868;2022-12-10T03:17:33;37.55;32.93;40.33;;
45478;Laerm;31227;47.986;11.868;2022-12-10T03:19:59;40.76;33.44;69.37;;
45478;Laerm;31227;47.986;11.868;2022-12-10T03:22:25;37.58;32.93;40.23;;
45478;Laerm;31227;47.986;11.868;2022-12-10T03:24:51;37.58;33.90;40.62;;
45478;Laerm;31227;47.986;11.868;2022-12-10T03:27:17;37.57;31.68;40.62;;
45478;Laerm;31227;47.986;11.868;2022-12-10T03:29:45;38.03;32.93;47.04;;
45478;Laerm;31227;47.986;11.868;2022-12-10T03:32:12;37.66;32.35;42.16;;
45478;Laerm;31227;47.986;11.868;2022-12-10T03:34:38;37.58;33.44;40.62;;
45478;Laerm;31227;47.986;11.868;2022-12-10T03:37:03;39.04;33.90;49.20;;
45478;Laerm;31227;47.986;11.868;2022-12-10T03:39:29;37.97;33.44;45.04;;
45478;Laerm;31227;47.986;11.868;2022-12-10T03:41:54;37.71;33.44;42.47;;
45478;Laerm;31227;47.986;11.868;2022-12-10T03:44:27;38.22;33.44;44.23;;
45478;Laerm;31227;47.986;11.868;2022-12-10T03:46:53;39.07;32.35;49.88;;
45478;Laerm;31227;47.986;11.868;2022-12-10T03:49:18;37.55;32.93;40.80;;
45478;Laerm;31227;47.986;11.868;2022-12-10T03:51:43;37.76;33.44;42.88;;
45478;Laerm;31227;47.986;11.868;2022-12-10T03:54:08;38.10;33.90;46.35;;
45478;Laerm;31227;47.986;11.868;2022-12-10T03:56:33;37.63;32.35;41.75;;
45478;Laerm;31227;47.986;11.868;2022-12-10T03:58:59;37.51;33.44;40.13;;
45478;Laerm;31227;47.986;11.868;2022-12-10T04:01:24;38.50;31.68;51.43;;
45478;Laerm;31227;47.986;11.868;2022-12-10T04:03:49;37.73;28.67;41.82;;
45478;Laerm;31227;47.986;11.868;2022-12-10T04:06:16;39.69;32.35;56.01;;
45478;Laerm;31227;47.986;11.868;2022-12-10T04:08:41;38.20;33.44;45.54;;
45478;Laerm;31227;47.986;11.868;2022-12-10T04:11:08;38.40;32.93;45.36;;
45478;Laerm;31227;47.986;11.868;2022-12-10T04:13:35;37.79;31.68;43.63;;
45478;Laerm;31227;47.986;11.868;2022-12-10T04:16:20;39.51;32.93;70.55;;
45478;Laerm;31227;47.986;11.868;2022-12-10T04:18:51;38.66;32.35;47.93;;
45478;Laerm;31227;47.986;11.868;2022-12-10T04:21:17;38.83;32.93;53.08;;
45478;Laerm;31227;47.986;11.868;2022-12-10T04:24:00;39.55;33.44;59.02;;
45478;Laerm;31227;47.986;11.868;2022-12-10T04:26:44;41.29;32.35;72.96;;
45478;Laerm;31227;47.986;11.868;2022-12-10T04:29:19;38.26;33.44;44.51;;
45478;Laerm;31227;47.986;11.868;2022-12-10T04:31:45;38.12;32.93;45.94;;
45478;Laerm;31227;47.986;11.868;2022-12-10T04:34:10;37.85;33.44;44.39;;
45478;Laerm;31227;47.986;11.868;2022-12-10T04:36:35;38.22;33.44;44.58;;
45478;Laerm;31227;47.986;11.868;2022-12-10T04:39:00;39.28;33.44;50.19;;
45478;Laerm;31227;47.986;11.868;2022-12-10T04:41:26;37.98;32.35;45.75;;
45478;Laerm;31227;47.986;11.868;2022-12-10T04:43:52;37.65;32.93;42.35;;
45478;Laerm;31227;47.986;11.868;2022-12-10T04:46:17;38.89;33.90;47.00;;
45478;Laerm;31227;47.986;11.868;2022-12-10T04:48:42;38.31;32.93;46.55;;
45478;Laerm;31227;47.986;11.868;2022-12-10T04:51:07;38.89;33.44;48.83;;
45478;Laerm;31227;47.986;11.868;2022-12-10T04:53:32;37.52;33.44;40.80;;
45478;Laerm;31227;47.986;11.868;2022-12-10T04:55:57;37.98;32.93;44.65;;
45478;Laerm;31227;47.986;11.868;2022-12-10T04:58:23;38.03;33.44;43.81;;
45478;Laerm;31227;47.986;11.868;2022-12-10T05:00:48;38.10;32.93;45.07;;
45478;Laerm;31227;47.986;11.868;2022-12-10T05:03:13;38.11;34.31;44.39;;
45478;Laerm;31227;47.986;11.868;2022-12-10T05:05:38;38.91;33.44;46.52;;
45478;Laerm;31227;47.986;11.868;2022-12-10T05:08:04;37.90;31.68;44.47;;
45478;Laerm;31227;47.986;11.868;2022-12-10T05:10:29;38.50;32.35;44.27;;
45478;Laerm;31227;47.986;11.868;2022-12-10T05:12:54;37.69;32.93;50.73;;
45478;Laerm;31227;47.986;11.868;2022-12-10T05:15:20;38.13;32.35;46.40;;
45478;Laerm;31227;47.986;11.868;2022-12-10T05:17:45;38.44;32.35;45.30;;
45478;Laerm;31227;47.986;11.868;2022-12-10T05:20:10;38.04;33.44;46.76;;
45478;Laerm;31227;47.986;11.868;2022-12-10T05:22:35;39.01;32.93;46.35;;
45478;Laerm;31227;47.986;11.868;2022-12-10T05:25:19;38.24;32.93;44.97;;
45478;Laerm;31227;47.986;11.868;2022-12-10T05:27:44;38.87;32.93;51.97;;
45478;Laerm;31227;47.986;11.868;2022-12-10T05:30:10;38.10;33.44;44.03;;
45478;Laerm;31227;47.986;11.868;2022-12-10T05:32:35;38.48;32.93;43.04;;
45478;Laerm;31227;47.986;11.868;2022-12-10T05:35:00;40.01;33.44;47.65;;
45478;Laerm;31227;47.986;11.868;2022-12-10T05:37:25;38.67;33.44;45.17;;
45478;Laerm;31227;47.986;11.868;2022-12-10T05:39:51;39.87;32.35;49.23;;
45478;Laerm;31227;47.986;11.868;2022-12-10T05:42:16;37.99;32.93;45.23;;
45478;Laerm;31227;47.986;11.868;2022-12-10T05:44:41;38.77;33.90;44.35;;
45478;Laerm;31227;47.986;11.868;2022-12-10T05:47:06;38.45;32.35;44.80;;
45478;Laerm;31227;47.986;11.868;2022-12-10T05:49:31;38.56;32.93;44.62;;
45478;Laerm;31227;47.986;11.868;2022-12-10T05:51:57;38.97;33.44;45.01;;
45478;Laerm;31227;47.986;11.868;2022-12-10T05:54:22;38.61;32.93;46.43;;
45478;Laerm;31227;47.986;11.868;2022-12-10T05:56:47;38.38;32.93;44.69;;
45478;Laerm;31227;47.986;11.868;2022-12-10T05:59:12;40.75;33.44;54.33;;
45478;Laerm;31227;47.986;11.868;2022-12-10T06:01:37;39.60;32.93;45.69;;
45478;Laerm;31227;47.986;11.868;2022-12-10T06:04:03;39.06;34.31;45.33;;
45478;Laerm;31227;47.986;11.868;2022-12-10T06:06:30;38.60;33.90;43.54;;
45478;Laerm;31227;47.986;11.868;2022-12-10T06:08:56;39.18;33.90;47.14;;
45478;Laerm;31227;47.986;11.868;2022-12-10T06:11:22;38.34;32.93;44.87;;
45478;Laerm;31227;47.986;11.868;2022-12-10T06:13:47;38.93;33.90;46.64;;
45478;Laerm;31227;47.986;11.868;2022-12-10T06:16:13;38.63;33.90;43.44;;
45478;Laerm;31227;47.986;11.868;2022-12-10T06:18:39;39.66;34.69;45.36;;
45478;Laerm;31227;47.986;11.868;2022-12-10T06:21:05;39.49;33.90;44.59;;
45478;Laerm;31227;47.986;11.868;2022-12-10T06:23:30;38.89;32.35;44.69;;
45478;Laerm;31227;47.986;11.868;2022-12-10T06:25:55;39.98;34.69;46.69;;
45478;Laerm;31227;47.986;11.868;2022-12-10T06:28:20;39.26;34.31;45.45;;
45478;Laerm;31227;47.986;11.868;2022-12-10T06:30:46;40.79;35.04;54.60;;
45478;Laerm;31227;47.986;11.868;2022-12-10T06:33:11;38.39;32.35;42.65;;
45478;Laerm;31227;47.986;11.868;2022-12-10T06:35:37;40.87;33.90;72.42;;
45478;Laerm;31227;47.986;11.868;2022-12-10T06:38:02;38.90;33.90;43.72;;
45478;Laerm;31227;47.986;11.868;2022-12-10T06:40:27;39.09;33.44;46.52;;
45478;Laerm;31227;47.986;11.868;2022-12-10T06:42:52;39.41;34.69;44.97;;
45478;Laerm;31227;47.986;11.868;2022-12-10T06:45:18;39.40;33.44;44.49;;
45478;Laerm;31227;47.986;11.868;2022-12-10T06:47:43;40.58;35.04;52.73;;
45478;Laerm;31227;47.986;11.868;2022-12-10T06:50:08;39.88;34.31;45.30;;
45478;Laerm;31227;47.986;11.868;2022-12-10T06:52:33;39.46;35.36;45.33;;
45478;Laerm;31227;47.986;11.868;2022-12-10T06:54:59;39.37;35.36;45.51;;
45478;Laerm;31227;47.986;11.868;2022-12-10T06:57:24;39.46;35.04;45.04;;
45478;Laerm;31227;47.986;11.868;2022-12-10T06:59:49;39.86;35.36;44.87;;
45478;Laerm;31227;47.986;11.868;2022-12-10T07:02:14;39.73;35.04;45.11;;
45478;Laerm;31227;47.986;11.868;2022-12-10T07:04:40;39.13;35.36;45.39;;
45478;Laerm;31227;47.986;11.868;2022-12-10T07:07:05;40.06;35.66;44.97;;
45478;Laerm;31227;47.986;11.868;2022-12-10T07:09:31;40.54;35.94;46.57;;
45478;Laerm;31227;47.986;11.868;2022-12-10T07:11:57;39.70;35.04;43.58;;
45478;Laerm;31227;47.986;11.868;2022-12-10T07:14:22;40.02;35.66;45.77;;
45478;Laerm;31227;47.986;11.868;2022-12-10T07:16:47;39.52;35.04;45.20;;
45478;Laerm;31227;47.986;11.868;2022-12-10T07:19:12;39.55;35.04;44.80;;
45478;Laerm;31227;47.986;11.868;2022-12-10T07:21:39;40.32;35.86;45.04;;
45478;Laerm;31227;47.986;11.868;2022-12-10T07:24:06;39.50;35.04;44.43;;
45478;Laerm;31227;47.986;11.868;2022-12-10T07:26:33;41.11;34.31;52.80;;
45478;Laerm;31227;47.986;11.868;2022-12-10T07:28:59;39.66;34.69;48.64;;
45478;Laerm;31227;47.986;11.868;2022-12-10T07:31:25;39.45;32.93;47.00;;
45478;Laerm;31227;47.986;11.868;2022-12-10T07:33:51;39.21;34.31;44.62;;
45478;Laerm;31227;47.986;11.868;2022-12-10T07:36:17;39.48;34.31;44.11;;
45478;Laerm;31227;47.986;11.868;2022-12-10T07:38:42;40.02;32.93;48.03;;
45478;Laerm;31227;47.986;11.868;2022-12-10T07:41:08;39.45;33.44;44.73;;
45478;Laerm;31227;47.986;11.868;2022-12-10T07:43:35;39.45;33.44;44.47;;
45478;Laerm;31227;47.986;11.868;2022-12-10T07:46:04;39.18;33.90;43.54;;
45478;Laerm;31227;47.986;11.868;2022-12-10T07:48:30;39.59;34.31;45.60;;
45478;Laerm;31227;47.986;11.868;2022-12-10T07:50:55;38.80;33.90;43.68;;
45478;Laerm;31227;47.986;11.868;2022-12-10T07:53:21;39.08;34.31;43.58;;
45478;Laerm;31227;47.986;11.868;2022-12-10T07:55:46;40.39;34.31;50.59;;
45478;Laerm;31227;47.986;11.868;2022-12-10T07:58:11;39.94;33.90;44.62;;
45478;Laerm;31227;47.986;11.868;2022-12-10T08:00:37;39.13;33.90;43.58;;
45478;Laerm;31227;47.986;11.868;2022-12-10T08:03:02;40.19;34.69;48.51;;
45478;Laerm;31227;47.986;11.868;2022-12-10T08:05:27;39.69;33.90;45.77;;
45478;Laerm;31227;47.986;11.868;2022-12-10T08:07:52;39.48;34.31;43.99;;
45478;Laerm;31227;47.986;11.868;2022-12-10T08:10:17;39.95;34.31;46.43;;
45478;Laerm;31227;47.986;11.868;2022-12-10T08:12:44;40.33;35.04;46.30;;
45478;Laerm;31227;47.986;11.868;2022-12-10T08:15:09;39.68;34.31;45.14;;
45478;Laerm;31227;47.986;11.868;2022-12-10T08:17:34;40.34;34.69;44.65;;
45478;Laerm;31227;47.986;11.868;2022-12-10T08:20:00;39.58;33.90;44.73;;
45478;Laerm;31227;47.986;11.868;2022-12-10T08:22:25;40.40;34.31;46.62;;
45478;Laerm;31227;47.986;11.868;2022-12-10T08:24:50;40.14;34.69;45.69;;
45478;Laerm;31227;47.986;11.868;2022-12-10T08:27:15;39.60;33.44;47.00;;
45478;Laerm;31227;47.986;11.868;2022-12-10T08:29:41;40.01;34.31;46.50;;
45478;Laerm;31227;47.986;11.868;2022-12-10T08:32:06;39.89;34.31;44.69;;
45478;Laerm;31227;47.986;11.868;2022-12-10T08:34:31;40.33;34.69;50.37;;
45478;Laerm;31227;47.986;11.868;2022-12-10T08:36:56;40.32;34.31;47.81;;
45478;Laerm;31227;47.986;11.868;2022-12-10T08:39:22;39.96;33.44;45.04;;
45478;Laerm;31227;47.986;11.868;2022-12-10T08:41:47;40.57;34.31;48.57;;
45478;Laerm;31227;47.986;11.868;2022-12-10T08:44:12;40.31;33.90;44.62;;
45478;Laerm;31227;47.986;11.868;2022-12-10T08:46:37;40.38;34.69;46.87;;
45478;Laerm;31227;47.986;11.868;2022-12-10T08:49:03;40.47;34.31;46.71;;
45478;Laerm;31227;47.986;11.868;2022-12-10T08:51:28;40.44;34.69;47.54;;
45478;Laerm;31227;47.986;11.868;2022-12-10T08:53:54;41.22;35.66;51.46;;
45478;Laerm;31227;47.986;11.868;2022-12-10T08:56:19;40.75;34.69;45.42;;
45478;Laerm;31227;47.986;11.868;2022-12-10T08:58:44;40.56;35.04;45.30;;
45478;Laerm;31227;47.986;11.868;2022-12-10T09:01:11;40.84;34.69;50.45;;
45478;Laerm;31227;47.986;11.868;2022-12-10T09:03:37;40.57;34.69;45.27;;
45478;Laerm;31227;47.986;11.868;2022-12-10T09:06:04;40.57;33.90;45.42;;
45478;Laerm;31227;47.986;11.868;2022-12-10T09:08:29;40.17;33.90;46.45;;
45478;Laerm;31227;47.986;11.868;2022-12-10T09:10:54;41.41;33.55;53.64;;
45478;Laerm;31227;47.986;11.868;2022-12-10T09:13:19;40.49;34.69;46.69;;
45478;Laerm;31227;47.986;11.868;2022-12-10T09:15:51;40.51;35.36;45.42;;
45478;Laerm;31227;47.986;11.868;2022-12-10T09:18:17;40.69;35.04;46.64;;
45478;Laerm;31227;47.986;11.868;2022-12-10T09:20:42;40.72;34.31;46.59;;
45478;Laerm;31227;47.986;11.868;2022-12-10T09:23:07;40.62;35.01;45.28;;
45478;Laerm;31227;47.986;11.868;2022-12-10T09:25:32;41.47;35.04;48.20;;
45478;Laerm;31227;47.986;11.868;2022-12-10T09:27:57;41.58;35.94;49.70;;
45478;Laerm;31227;47.986;11.868;2022-12-10T09:30:23;40.48;34.69;45.01;;
45478;Laerm;31227;47.986;11.868;2022-12-10T09:32:48;41.91;36.69;47.79;;
45478;Laerm;31227;47.986;11.868;2022-12-10T09:35:13;40.60;35.36;44.90;;
45478;Laerm;31227;47.986;11.868;2022-12-10T09:37:38;40.81;34.31;47.14;;
45478;Laerm;31227;47.986;11.868;2022-12-10T09:40:04;41.00;34.69;50.16;;
45478;Laerm;31227;47.986;11.868;2022-12-10T09:47:55;40.96;34.31;45.60;;
45478;Laerm;31227;47.986;11.868;2022-12-10T09:53:15;41.41;35.36;48.57;;
45478;Laerm;31227;47.986;11.868;2022-12-10T09:55:43;40.54;33.90;45.86;;
45478;Laerm;31227;47.986;11.868;2022-12-10T09:58:12;40.26;32.93;53.18;;
45478;Laerm;31227;47.986;11.868;2022-12-10T10:00:39;40.42;34.69;45.63;;
45478;Laerm;31227;47.986;11.868;2022-12-10T10:03:05;40.35;33.90;46.38;;
45478;Laerm;31227;47.986;11.868;2022-12-10T10:05:35;40.75;35.36;51.56;;
45478;Laerm;31227;47.986;11.868;2022-12-10T10:09:03;40.52;35.04;45.94;;
45478;Laerm;31227;47.986;11.868;2022-12-10T10:10:58;40.71;35.36;46.40;;
45478;Laerm;31227;47.986;11.868;2022-12-10T10:13:32;41.02;34.31;47.08;;
45478;Laerm;31227;47.986;11.868;2022-12-10T10:16:01;41.57;35.36;52.47;;
45478;Laerm;31227;47.986;11.868;2022-12-10T10:18:45;42.10;34.69;55.82;;
45478;Laerm;31227;47.986;11.868;2022-12-10T10:21:21;41.25;35.36;46.78;;
45478;Laerm;31227;47.986;11.868;2022-12-10T10:23:46;41.13;35.36;46.71;;
45478;Laerm;31227;47.986;11.868;2022-12-10T10:26:12;41.32;35.36;46.10;;
45478;Laerm;31227;47.986;11.868;2022-12-10T10:28:37;42.01;35.36;51.69;;
45478;Laerm;31227;47.986;11.868;2022-12-10T10:31:07;41.38;35.04;47.40;;
45478;Laerm;31227;47.986;11.868;2022-12-10T10:33:47;41.53;32.93;45.75;;
45478;Laerm;31227;47.986;11.868;2022-12-10T10:36:12;40.52;35.04;46.02;;
45478;Laerm;31227;47.986;11.868;2022-12-10T10:38:38;41.97;35.36;54.32;;
45478;Laerm;31227;47.986;11.868;2022-12-10T10:41:03;42.10;33.44;56.52;;
45478;Laerm;31227;47.986;11.868;2022-12-10T10:43:42;41.17;34.69;48.84;;
45478;Laerm;31227;47.986;11.868;2022-12-10T10:48:35;40.93;34.69;45.60;;
45478;Laerm;31227;47.986;11.868;2022-12-10T10:53:50;42.40;37.12;50.12;;
45478;Laerm;31227;47.986;11.868;2022-12-10T10:56:23;41.02;35.59;46.84;;
45478;Laerm;31227;47.986;11.868;2022-12-10T10:58:51;41.95;35.94;53.37;;
45478;Laerm;31227;47.986;11.868;2022-12-10T11:01:17;40.58;35.36;47.63;;
45478;Laerm;31227;47.986;11.868;2022-12-10T11:03:47;40.69;35.36;47.77;;
45478;Laerm;31227;47.986;11.868;2022-12-10T11:06:13;41.25;35.66;46.15;;
45478;Laerm;31227;47.986;11.868;2022-12-10T11:08:38;40.86;35.04;46.82;;
45478;Laerm;31227;47.986;11.868;2022-12-10T11:11:31;40.66;34.31;47.04;;
45478;Laerm;31227;47.986;11.868;2022-12-10T11:13:50;41.22;34.31;47.84;;
45478;Laerm;31227;47.986;11.868;2022-12-10T11:16:17;41.04;35.04;45.86;;
45478;Laerm;31227;47.986;11.868;2022-12-10T11:18:54;40.64;34.34;51.33;;
45478;Laerm;31227;47.986;11.868;2022-12-10T11:21:20;41.10;35.36;50.33;;
45478;Laerm;31227;47.986;11.868;2022-12-10T11:23:53;40.53;33.90;46.52;;
45478;Laerm;31227;47.986;11.868;2022-12-10T11:34:19;42.51;35.04;48.69;;
45478;Laerm;31227;47.986;11.868;2022-12-10T11:41:58;42.09;34.31;48.00;;
45478;Laerm;31227;47.986;11.868;2022-12-10T11:52:27;42.33;35.04;50.98;;
45478;Laerm;31227;47.986;11.868;2022-12-10T11:55:02;41.60;34.31;48.40;;
45478;Laerm;31227;47.986;11.868;2022-12-10T12:00:24;43.06;34.69;49.51;;
45478;Laerm;31227;47.986;11.868;2022-12-10T12:03:05;42.75;34.69;48.94;;
45478;Laerm;31227;47.986;11.868;2022-12-10T12:05:40;43.39;35.94;51.91;;
45478;Laerm;31227;47.986;11.868;2022-12-10T12:13:15;41.93;35.36;49.60;;
45478;Laerm;31227;47.986;11.868;2022-12-10T12:15:49;42.34;34.69;50.16;;
45478;Laerm;31227;47.986;11.868;2022-12-10T12:18:17;42.61;35.94;52.13;;
45478;Laerm;31227;47.986;11.868;2022-12-10T12:20:46;41.54;34.69;48.10;;
45478;Laerm;31227;47.986;11.868;2022-12-10T12:23:14;42.01;34.31;49.83;;
45478;Laerm;31227;47.986;11.868;2022-12-10T12:25:46;42.42;34.69;51.55;;
45478;Laerm;31227;47.986;11.868;2022-12-10T12:28:14;42.94;34.69;49.84;;
45478;Laerm;31227;47.986;11.868;2022-12-10T12:30:41;42.36;35.36;48.83;;
45478;Laerm;31227;47.986;11.868;2022-12-10T12:33:16;41.89;34.31;49.83;;
45478;Laerm;31227;47.986;11.868;2022-12-10T12:35:46;41.71;34.69;48.96;;
45478;Laerm;31227;47.986;11.868;2022-12-10T12:40:48;42.68;34.31;55.35;;
45478;Laerm;31227;47.986;11.868;2022-12-10T12:43:16;42.25;35.66;48.10;;
45478;Laerm;31227;47.986;11.868;2022-12-10T12:45:51;42.69;36.20;49.30;;
45478;Laerm;31227;47.986;11.868;2022-12-10T12:53:24;42.26;35.31;48.88;;
45478;Laerm;31227;47.986;11.868;2022-12-10T13:00:58;40.80;34.31;48.12;;
45478;Laerm;31227;47.986;11.868;2022-12-10T13:03:41;41.36;34.69;49.34;;
45478;Laerm;31227;47.986;11.868;2022-12-10T13:06:27;42.26;35.94;48.77;;
45478;Laerm;31227;47.986;11.868;2022-12-10T13:11:36;41.64;35.04;48.98;;
45478;Laerm;31227;47.986;11.868;2022-12-10T13:27:10;42.22;35.04;55.78;;
45478;Laerm;31227;47.986;11.868;2022-12-10T13:32:12;41.29;34.69;47.50;;
45478;Laerm;31227;47.986;11.868;2022-12-10T13:34:38;41.13;34.31;47.85;;
45478;Laerm;31227;47.986;11.868;2022-12-10T13:37:05;40.99;34.69;46.82;;
45478;Laerm;31227;47.986;11.868;2022-12-10T13:39:35;41.49;34.31;48.91;;
45478;Laerm;31227;47.986;11.868;2022-12-10T13:42:25;41.17;34.69;47.61;;
45478;Laerm;31227;47.986;11.868;2022-12-10T13:47:46;41.59;33.90;47.02;;
45478;Laerm;31227;47.986;11.868;2022-12-10T13:50:19;40.90;34.69;47.50;;
45478;Laerm;31227;47.986;11.868;2022-12-10T13:57:53;40.95;34.69;47.55;;
45478;Laerm;31227;47.986;11.868;2022-12-10T14:00:22;40.82;34.31;47.61;;
45478;Laerm;31227;47.986;11.868;2022-12-10T14:02:56;41.52;34.31;48.13;;
45478;Laerm;31227;47.986;11.868;2022-12-10T14:05:40;41.17;34.31;48.88;;
45478;Laerm;31227;47.986;11.868;2022-12-10T14:08:10;41.52;34.31;49.06;;
45478;Laerm;31227;47.986;11.868;2022-12-10T14:10:38;41.43;35.66;48.08;;
45478;Laerm;31227;47.986;11.868;2022-12-10T14:13:06;40.29;32.93;47.84;;
45478;Laerm;31227;47.986;11.868;2022-12-10T14:15:31;41.68;35.01;48.40;;
45478;Laerm;31227;47.986;11.868;2022-12-10T14:18:00;41.98;35.04;50.24;;
45478;Laerm;31227;47.986;11.868;2022-12-10T14:20:27;40.47;34.69;47.61;;
45478;Laerm;31227;47.986;11.868;2022-12-10T14:22:55;41.46;34.31;51.82;;
45478;Laerm;31227;47.986;11.868;2022-12-10T14:25:43;41.91;34.69;48.61;;
45478;Laerm;31227;47.986;11.868;2022-12-10T14:28:12;40.90;34.31;47.51;;
45478;Laerm;31227;47.986;11.868;2022-12-10T14:30:40;40.95;35.04;49.24;;
45478;Laerm;31227;47.986;11.868;2022-12-10T14:33:07;41.89;35.59;47.30;;
45478;Laerm;31227;47.986;11.868;2022-12-10T14:35:36;41.49;35.36;47.24;;
45478;Laerm;31227;47.986;11.868;2022-12-10T14:38:01;40.06;33.90;48.43;;
45478;Laerm;31227;47.986;11.868;2022-12-10T14:40:29;41.03;35.04;48.90;;
45478;Laerm;31227;47.986;11.868;2022-12-10T14:42:59;50.41;34.69;73.24;;
45478;Laerm;31227;47.986;11.868;2022-12-10T14:45:27;41.27;34.69;48.02;;
45478;Laerm;31227;47.986;11.868;2022-12-10T14:47:56;41.37;35.04;48.18;;
45478;Laerm;31227;47.986;11.868;2022-12-10T14:50:24;40.07;33.44;45.63;;
45478;Laerm;31227;47.986;11.868;2022-12-10T14:55:38;40.73;33.97;46.95;;
45478;Laerm;31227;47.986;11.868;2022-12-10T14:58:03;40.88;35.04;47.79;;
45478;Laerm;31227;47.986;11.868;2022-12-10T15:40:43;38.53;33.90;43.29;;
45478;Laerm;31227;47.986;11.868;2022-12-10T15:45:48;39.17;34.31;47.53;;
45478;Laerm;31227;47.986;11.868;2022-12-10T15:48:16;39.01;33.90;43.99;;